sensor_id;sensor_type;location;lat;lon;timestamp;temperature;humidity
46440;DHT22;32138;50.966;6.968;2022-08-06T00:00:34;20.10;57.90
46440;DHT22;32138;50.966;6.968;2022-08-06T00:02:34;20.00;58.40
46440;DHT22;32138;50.966;6.968;2022-08-06T00:04:35;20.10;58.40
46440;DHT22;32138;50.966;6.968;2022-08-06T00:06:36;20.00;58.60
46440;DHT22;32138;50.966;6.968;2022-08-06T00:08:37;20.00;58.50
46440;DHT22;32138;50.966;6.968;2022-08-06T00:10:38;20.00;58.50
46440;DHT22;32138;50.966;6.968;2022-08-06T00:12:39;20.00;58.80
46440;DHT22;32138;50.966;6.968;2022-08-06T00:14:40;19.80;58.50
46440;DHT22;32138;50.966;6.968;2022-08-06T00:16:41;19.80;58.80
46440;DHT22;32138;50.966;6.968;2022-08-06T00:18:41;19.70;58.80
46440;DHT22;32138;50.966;6.968;2022-08-06T00:20:42;19.60;58.70
46440;DHT22;32138;50.966;6.968;2022-08-06T00:22:43;19.50;59.20
46440;DHT22;32138;50.966;6.968;2022-08-06T00:24:44;19.50;59.60
46440;DHT22;32138;50.966;6.968;2022-08-06T00:26:45;19.50;59.80
46440;DHT22;32138;50.966;6.968;2022-08-06T00:28:46;19.60;59.10
46440;DHT22;32138;50.966;6.968;2022-08-06T00:30:47;19.60;59.00
46440;DHT22;32138;50.966;6.968;2022-08-06T00:32:48;19.60;58.90
46440;DHT22;32138;50.966;6.968;2022-08-06T00:34:49;19.60;59.20
46440;DHT22;32138;50.966;6.968;2022-08-06T00:36:50;19.60;58.90
46440;DHT22;32138;50.966;6.968;2022-08-06T00:38:51;19.50;58.70
46440;DHT22;32138;50.966;6.968;2022-08-06T00:40:53;19.50;59.10
46440;DHT22;32138;50.966;6.968;2022-08-06T00:42:55;19.50;59.00
46440;DHT22;32138;50.966;6.968;2022-08-06T00:45:00;19.40;59.10
46440;DHT22;32138;50.966;6.968;2022-08-06T00:47:01;19.50;59.40
46440;DHT22;32138;50.966;6.968;2022-08-06T00:49:02;19.30;58.60
46440;DHT22;32138;50.966;6.968;2022-08-06T00:51:03;19.30;59.30
46440;DHT22;32138;50.966;6.968;2022-08-06T00:53:04;19.30;59.10
46440;DHT22;32138;50.966;6.968;2022-08-06T00:55:06;19.30;59.20
46440;DHT22;32138;50.966;6.968;2022-08-06T00:57:07;19.30;59.00
46440;DHT22;32138;50.966;6.968;2022-08-06T00:59:08;19.20;59.10
46440;DHT22;32138;50.966;6.968;2022-08-06T01:01:09;19.10;59.30
46440;DHT22;32138;50.966;6.968;2022-08-06T01:03:11;19.20;59.30
46440;DHT22;32138;50.966;6.968;2022-08-06T01:05:12;19.10;59.20
46440;DHT22;32138;50.966;6.968;2022-08-06T01:07:13;19.00;59.50
46440;DHT22;32138;50.966;6.968;2022-08-06T01:09:13;19.10;59.50
46440;DHT22;32138;50.966;6.968;2022-08-06T01:11:14;19.00;59.90
46440;DHT22;32138;50.966;6.968;2022-08-06T01:13:15;19.10;59.80
46440;DHT22;32138;50.966;6.968;2022-08-06T01:15:16;19.10;59.80
46440;DHT22;32138;50.966;6.968;2022-08-06T01:17:24;19.10;60.00
46440;DHT22;32138;50.966;6.968;2022-08-06T01:19:39;19.10;60.00
46440;DHT22;32138;50.966;6.968;2022-08-06T01:22:10;19.00;60.00
46440;DHT22;32138;50.966;6.968;2022-08-06T01:24:50;19.10;59.70
46440;DHT22;32138;50.966;6.968;2022-08-06T01:29:39;19.00;60.10
46440;DHT22;32138;50.966;6.968;2022-08-06T01:32:02;19.00;60.20
46440;DHT22;32138;50.966;6.968;2022-08-06T01:34:09;18.90;60.20
46440;DHT22;32138;50.966;6.968;2022-08-06T01:36:22;18.80;60.40
46440;DHT22;32138;50.966;6.968;2022-08-06T01:38:36;18.80;60.40
46440;DHT22;32138;50.966;6.968;2022-08-06T01:40:43;18.80;60.70
46440;DHT22;32138;50.966;6.968;2022-08-06T01:42:46;18.80;60.80
46440;DHT22;32138;50.966;6.968;2022-08-06T01:44:49;18.80;61.00
46440;DHT22;32138;50.966;6.968;2022-08-06T01:46:55;18.70;61.00
46440;DHT22;32138;50.966;6.968;2022-08-06T01:48:59;18.80;60.80
46440;DHT22;32138;50.966;6.968;2022-08-06T01:51:02;18.70;61.00
46440;DHT22;32138;50.966;6.968;2022-08-06T01:53:07;18.50;61.30
46440;DHT22;32138;50.966;6.968;2022-08-06T01:55:13;18.50;61.40
46440;DHT22;32138;50.966;6.968;2022-08-06T01:57:18;18.60;61.30
46440;DHT22;32138;50.966;6.968;2022-08-06T01:59:24;18.50;61.20
46440;DHT22;32138;50.966;6.968;2022-08-06T02:01:31;18.50;61.30
46440;DHT22;32138;50.966;6.968;2022-08-06T02:03:42;18.60;61.50
46440;DHT22;32138;50.966;6.968;2022-08-06T02:05:44;18.50;61.60
46440;DHT22;32138;50.966;6.968;2022-08-06T02:07:48;18.40;61.50
46440;DHT22;32138;50.966;6.968;2022-08-06T02:09:52;18.50;61.70
46440;DHT22;32138;50.966;6.968;2022-08-06T02:11:56;18.60;61.60
46440;DHT22;32138;50.966;6.968;2022-08-06T02:14:04;18.60;61.60
46440;DHT22;32138;50.966;6.968;2022-08-06T02:16:08;18.60;61.50
46440;DHT22;32138;50.966;6.968;2022-08-06T02:18:11;18.50;61.60
46440;DHT22;32138;50.966;6.968;2022-08-06T02:20:16;18.60;61.70
46440;DHT22;32138;50.966;6.968;2022-08-06T02:22:19;18.50;61.20
46440;DHT22;32138;50.966;6.968;2022-08-06T02:24:22;18.40;61.80
46440;DHT22;32138;50.966;6.968;2022-08-06T02:26:25;18.50;61.70
46440;DHT22;32138;50.966;6.968;2022-08-06T02:28:29;18.40;61.60
46440;DHT22;32138;50.966;6.968;2022-08-06T02:30:34;18.40;61.60
46440;DHT22;32138;50.966;6.968;2022-08-06T02:32:36;18.40;61.90
46440;DHT22;32138;50.966;6.968;2022-08-06T02:34:37;18.50;61.80
46440;DHT22;32138;50.966;6.968;2022-08-06T02:36:47;18.40;61.70
46440;DHT22;32138;50.966;6.968;2022-08-06T02:39:13;18.40;61.30
46440;DHT22;32138;50.966;6.968;2022-08-06T02:41:42;18.30;61.70
46440;DHT22;32138;50.966;6.968;2022-08-06T02:43:51;18.30;61.70
46440;DHT22;32138;50.966;6.968;2022-08-06T02:45:59;18.20;61.80
46440;DHT22;32138;50.966;6.968;2022-08-06T02:48:17;18.10;61.90
46440;DHT22;32138;50.966;6.968;2022-08-06T02:50:24;18.10;61.70
46440;DHT22;32138;50.966;6.968;2022-08-06T02:52:53;18.10;62.00
46440;DHT22;32138;50.966;6.968;2022-08-06T02:55:15;18.10;62.40
46440;DHT22;32138;50.966;6.968;2022-08-06T02:57:21;18.00;62.40
46440;DHT22;32138;50.966;6.968;2022-08-06T02:59:27;18.00;62.10
46440;DHT22;32138;50.966;6.968;2022-08-06T03:01:36;18.00;62.50
46440;DHT22;32138;50.966;6.968;2022-08-06T03:03:41;18.10;62.30
46440;DHT22;32138;50.966;6.968;2022-08-06T03:05:44;18.00;62.10
46440;DHT22;32138;50.966;6.968;2022-08-06T03:07:48;18.00;62.30
46440;DHT22;32138;50.966;6.968;2022-08-06T03:09:52;18.00;62.20
46440;DHT22;32138;50.966;6.968;2022-08-06T03:11:54;18.00;62.20
46440;DHT22;32138;50.966;6.968;2022-08-06T03:13:56;17.90;62.70
46440;DHT22;32138;50.966;6.968;2022-08-06T03:16:00;17.90;62.90
46440;DHT22;32138;50.966;6.968;2022-08-06T03:18:03;17.90;62.90
46440;DHT22;32138;50.966;6.968;2022-08-06T03:20:06;17.90;62.80
46440;DHT22;32138;50.966;6.968;2022-08-06T03:22:09;17.90;62.70
46440;DHT22;32138;50.966;6.968;2022-08-06T03:24:12;17.80;62.90
46440;DHT22;32138;50.966;6.968;2022-08-06T03:26:13;17.80;63.20
46440;DHT22;32138;50.966;6.968;2022-08-06T03:28:15;17.80;63.00
46440;DHT22;32138;50.966;6.968;2022-08-06T03:30:18;17.80;63.00
46440;DHT22;32138;50.966;6.968;2022-08-06T03:32:21;17.80;62.80
46440;DHT22;32138;50.966;6.968;2022-08-06T03:34:22;17.80;62.60
46440;DHT22;32138;50.966;6.968;2022-08-06T03:36:23;17.70;63.00
46440;DHT22;32138;50.966;6.968;2022-08-06T03:38:26;17.70;62.90
46440;DHT22;32138;50.966;6.968;2022-08-06T03:40:29;17.60;62.90
46440;DHT22;32138;50.966;6.968;2022-08-06T03:42:31;17.60;63.00
46440;DHT22;32138;50.966;6.968;2022-08-06T03:44:31;17.70;62.70
46440;DHT22;32138;50.966;6.968;2022-08-06T03:48:47;17.70;62.90
46440;DHT22;32138;50.966;6.968;2022-08-06T03:50:51;17.60;63.60
46440;DHT22;32138;50.966;6.968;2022-08-06T03:52:57;17.70;63.10
46440;DHT22;32138;50.966;6.968;2022-08-06T03:55:06;17.60;63.40
46440;DHT22;32138;50.966;6.968;2022-08-06T03:57:13;17.60;64.30
46440;DHT22;32138;50.966;6.968;2022-08-06T03:59:17;17.60;64.20
46440;DHT22;32138;50.966;6.968;2022-08-06T04:01:22;17.40;64.10
46440;DHT22;32138;50.966;6.968;2022-08-06T04:03:24;17.40;64.20
46440;DHT22;32138;50.966;6.968;2022-08-06T04:05:26;17.40;64.00
46440;DHT22;32138;50.966;6.968;2022-08-06T04:07:29;17.50;64.10
46440;DHT22;32138;50.966;6.968;2022-08-06T04:09:32;17.40;64.10
46440;DHT22;32138;50.966;6.968;2022-08-06T04:11:33;17.40;64.00
46440;DHT22;32138;50.966;6.968;2022-08-06T04:13:35;17.50;64.00
46440;DHT22;32138;50.966;6.968;2022-08-06T04:17:50;17.40;63.60
46440;DHT22;32138;50.966;6.968;2022-08-06T04:19:52;17.40;63.60
46440;DHT22;32138;50.966;6.968;2022-08-06T04:21:54;17.40;63.70
46440;DHT22;32138;50.966;6.968;2022-08-06T04:23:55;17.50;63.80
46440;DHT22;32138;50.966;6.968;2022-08-06T04:25:58;17.50;63.70
46440;DHT22;32138;50.966;6.968;2022-08-06T04:28:03;17.40;64.30
46440;DHT22;32138;50.966;6.968;2022-08-06T04:30:06;17.40;63.80
46440;DHT22;32138;50.966;6.968;2022-08-06T04:32:08;17.40;64.20
46440;DHT22;32138;50.966;6.968;2022-08-06T04:34:11;17.40;63.90
46440;DHT22;32138;50.966;6.968;2022-08-06T04:36:14;17.20;64.90
46440;DHT22;32138;50.966;6.968;2022-08-06T04:38:17;17.10;65.40
46440;DHT22;32138;50.966;6.968;2022-08-06T04:40:18;17.00;65.80
46440;DHT22;32138;50.966;6.968;2022-08-06T04:42:19;17.00;65.60
46440;DHT22;32138;50.966;6.968;2022-08-06T04:44:20;17.10;65.60
46440;DHT22;32138;50.966;6.968;2022-08-06T04:46:21;17.10;65.60
46440;DHT22;32138;50.966;6.968;2022-08-06T04:48:23;16.90;66.20
46440;DHT22;32138;50.966;6.968;2022-08-06T04:50:24;16.90;66.80
46440;DHT22;32138;50.966;6.968;2022-08-06T04:52:27;16.80;67.20
46440;DHT22;32138;50.966;6.968;2022-08-06T04:54:28;16.90;66.90
46440;DHT22;32138;50.966;6.968;2022-08-06T04:56:29;16.80;66.90
46440;DHT22;32138;50.966;6.968;2022-08-06T04:58:30;16.80;67.30
46440;DHT22;32138;50.966;6.968;2022-08-06T05:00:32;16.90;67.20
46440;DHT22;32138;50.966;6.968;2022-08-06T05:02:33;17.00;67.80
46440;DHT22;32138;50.966;6.968;2022-08-06T05:04:35;16.80;67.40
46440;DHT22;32138;50.966;6.968;2022-08-06T05:06:45;16.90;67.60
46440;DHT22;32138;50.966;6.968;2022-08-06T05:08:53;16.90;67.30
46440;DHT22;32138;50.966;6.968;2022-08-06T05:11:07;16.90;67.60
46440;DHT22;32138;50.966;6.968;2022-08-06T05:13:14;17.00;67.90
46440;DHT22;32138;50.966;6.968;2022-08-06T05:15:24;16.80;68.10
46440;DHT22;32138;50.966;6.968;2022-08-06T05:17:32;16.90;68.70
46440;DHT22;32138;50.966;6.968;2022-08-06T05:19:38;16.90;67.80
46440;DHT22;32138;50.966;6.968;2022-08-06T05:21:44;16.80;68.40
46440;DHT22;32138;50.966;6.968;2022-08-06T05:23:49;16.90;68.20
46440;DHT22;32138;50.966;6.968;2022-08-06T05:25:51;17.00;67.90
46440;DHT22;32138;50.966;6.968;2022-08-06T05:27:53;16.90;68.30
46440;DHT22;32138;50.966;6.968;2022-08-06T05:29:55;16.90;68.40
46440;DHT22;32138;50.966;6.968;2022-08-06T05:31:59;17.00;68.60
46440;DHT22;32138;50.966;6.968;2022-08-06T05:34:09;17.00;68.50
46440;DHT22;32138;50.966;6.968;2022-08-06T05:36:11;17.00;69.10
46440;DHT22;32138;50.966;6.968;2022-08-06T05:38:12;17.10;68.20
46440;DHT22;32138;50.966;6.968;2022-08-06T05:40:13;17.10;68.60
46440;DHT22;32138;50.966;6.968;2022-08-06T05:42:14;17.20;68.10
46440;DHT22;32138;50.966;6.968;2022-08-06T05:44:15;17.30;67.80
46440;DHT22;32138;50.966;6.968;2022-08-06T05:46:18;17.30;67.50
46440;DHT22;32138;50.966;6.968;2022-08-06T05:48:21;17.40;67.30
46440;DHT22;32138;50.966;6.968;2022-08-06T05:50:28;17.40;67.20
46440;DHT22;32138;50.966;6.968;2022-08-06T05:54:49;17.40;67.10
46440;DHT22;32138;50.966;6.968;2022-08-06T05:57:21;17.50;67.40
46440;DHT22;32138;50.966;6.968;2022-08-06T05:59:28;17.60;67.00
46440;DHT22;32138;50.966;6.968;2022-08-06T06:01:29;17.60;67.30
46440;DHT22;32138;50.966;6.968;2022-08-06T06:03:31;17.50;67.10
46440;DHT22;32138;50.966;6.968;2022-08-06T06:05:32;17.50;67.00
46440;DHT22;32138;50.966;6.968;2022-08-06T06:07:34;17.50;67.80
46440;DHT22;32138;50.966;6.968;2022-08-06T06:09:36;17.70;67.40
46440;DHT22;32138;50.966;6.968;2022-08-06T06:11:38;17.70;67.40
46440;DHT22;32138;50.966;6.968;2022-08-06T06:13:40;17.70;67.40
46440;DHT22;32138;50.966;6.968;2022-08-06T06:15:45;17.80;67.20
46440;DHT22;32138;50.966;6.968;2022-08-06T06:25:14;17.80;67.10
46440;DHT22;32138;50.966;6.968;2022-08-06T06:30:07;17.90;67.20
46440;DHT22;32138;50.966;6.968;2022-08-06T06:37:08;18.00;66.50
46440;DHT22;32138;50.966;6.968;2022-08-06T06:39:30;18.10;66.30
46440;DHT22;32138;50.966;6.968;2022-08-06T06:41:42;18.10;65.90
46440;DHT22;32138;50.966;6.968;2022-08-06T06:46:13;18.00;66.60
46440;DHT22;32138;50.966;6.968;2022-08-06T06:48:25;18.20;67.20
46440;DHT22;32138;50.966;6.968;2022-08-06T06:50:40;18.30;66.00
46440;DHT22;32138;50.966;6.968;2022-08-06T06:52:44;18.40;66.20
46440;DHT22;32138;50.966;6.968;2022-08-06T06:54:54;18.50;66.00
46440;DHT22;32138;50.966;6.968;2022-08-06T06:57:10;18.60;65.90
46440;DHT22;32138;50.966;6.968;2022-08-06T06:59:16;18.60;65.20
46440;DHT22;32138;50.966;6.968;2022-08-06T07:01:20;18.50;65.00
46440;DHT22;32138;50.966;6.968;2022-08-06T07:03:23;18.60;64.90
46440;DHT22;32138;50.966;6.968;2022-08-06T07:05:25;18.70;64.30
46440;DHT22;32138;50.966;6.968;2022-08-06T07:07:31;18.90;63.60
46440;DHT22;32138;50.966;6.968;2022-08-06T07:09:34;18.90;64.00
46440;DHT22;32138;50.966;6.968;2022-08-06T07:11:36;18.90;64.10
46440;DHT22;32138;50.966;6.968;2022-08-06T07:13:39;18.90;63.50
46440;DHT22;32138;50.966;6.968;2022-08-06T07:15:42;18.90;64.00
46440;DHT22;32138;50.966;6.968;2022-08-06T07:17:44;19.00;63.40
46440;DHT22;32138;50.966;6.968;2022-08-06T07:19:47;19.00;63.90
46440;DHT22;32138;50.966;6.968;2022-08-06T07:21:49;19.10;63.40
46440;DHT22;32138;50.966;6.968;2022-08-06T07:23:51;19.20;63.00
46440;DHT22;32138;50.966;6.968;2022-08-06T07:25:54;19.30;63.10
46440;DHT22;32138;50.966;6.968;2022-08-06T07:27:55;19.30;62.90
46440;DHT22;32138;50.966;6.968;2022-08-06T07:29:57;19.30;61.90
46440;DHT22;32138;50.966;6.968;2022-08-06T07:31:59;19.30;62.30
46440;DHT22;32138;50.966;6.968;2022-08-06T07:34:01;19.30;62.30
46440;DHT22;32138;50.966;6.968;2022-08-06T07:36:02;19.30;62.00
46440;DHT22;32138;50.966;6.968;2022-08-06T07:38:04;19.40;61.30
46440;DHT22;32138;50.966;6.968;2022-08-06T07:40:10;19.40;62.10
46440;DHT22;32138;50.966;6.968;2022-08-06T07:42:16;19.40;62.00
46440;DHT22;32138;50.966;6.968;2022-08-06T07:44:20;19.60;61.50
46440;DHT22;32138;50.966;6.968;2022-08-06T07:46:31;19.60;60.10
46440;DHT22;32138;50.966;6.968;2022-08-06T07:48:37;19.50;59.90
46440;DHT22;32138;50.966;6.968;2022-08-06T07:50:51;19.60;61.50
46440;DHT22;32138;50.966;6.968;2022-08-06T07:52:55;19.40;60.50
46440;DHT22;32138;50.966;6.968;2022-08-06T07:55:06;19.40;60.20
46440;DHT22;32138;50.966;6.968;2022-08-06T07:57:08;19.50;60.60
46440;DHT22;32138;50.966;6.968;2022-08-06T07:59:10;19.50;60.60
46440;DHT22;32138;50.966;6.968;2022-08-06T08:01:12;19.60;60.40
46440;DHT22;32138;50.966;6.968;2022-08-06T08:03:14;19.50;60.30
46440;DHT22;32138;50.966;6.968;2022-08-06T08:05:34;19.50;60.50
46440;DHT22;32138;50.966;6.968;2022-08-06T08:07:55;19.50;60.30
46440;DHT22;32138;50.966;6.968;2022-08-06T08:09:56;19.40;59.20
46440;DHT22;32138;50.966;6.968;2022-08-06T08:11:59;19.40;60.20
46440;DHT22;32138;50.966;6.968;2022-08-06T08:14:01;19.40;59.40
46440;DHT22;32138;50.966;6.968;2022-08-06T08:16:05;19.40;59.30
46440;DHT22;32138;50.966;6.968;2022-08-06T08:18:07;19.50;58.50
46440;DHT22;32138;50.966;6.968;2022-08-06T08:20:09;19.40;58.10
46440;DHT22;32138;50.966;6.968;2022-08-06T08:22:13;19.40;58.80
46440;DHT22;32138;50.966;6.968;2022-08-06T08:24:16;19.50;59.20
46440;DHT22;32138;50.966;6.968;2022-08-06T08:26:17;19.70;58.10
46440;DHT22;32138;50.966;6.968;2022-08-06T08:28:18;19.70;58.70
46440;DHT22;32138;50.966;6.968;2022-08-06T08:30:19;19.80;58.30
46440;DHT22;32138;50.966;6.968;2022-08-06T08:32:20;20.00;57.60
46440;DHT22;32138;50.966;6.968;2022-08-06T08:34:22;20.00;58.30
46440;DHT22;32138;50.966;6.968;2022-08-06T08:36:23;20.00;57.30
46440;DHT22;32138;50.966;6.968;2022-08-06T08:38:24;20.00;56.30
46440;DHT22;32138;50.966;6.968;2022-08-06T08:40:26;20.00;54.60
46440;DHT22;32138;50.966;6.968;2022-08-06T08:42:45;20.10;56.20
46440;DHT22;32138;50.966;6.968;2022-08-06T08:44:48;20.10;56.60
46440;DHT22;32138;50.966;6.968;2022-08-06T08:46:50;20.10;55.30
46440;DHT22;32138;50.966;6.968;2022-08-06T08:48:53;20.10;54.90
46440;DHT22;32138;50.966;6.968;2022-08-06T08:50:58;20.20;54.80
46440;DHT22;32138;50.966;6.968;2022-08-06T08:53:07;20.20;55.40
46440;DHT22;32138;50.966;6.968;2022-08-06T08:55:09;20.30;53.70
46440;DHT22;32138;50.966;6.968;2022-08-06T08:57:24;20.40;55.70
46440;DHT22;32138;50.966;6.968;2022-08-06T08:59:39;20.40;54.30
46440;DHT22;32138;50.966;6.968;2022-08-06T09:01:40;20.40;55.20
46440;DHT22;32138;50.966;6.968;2022-08-06T09:03:41;20.50;54.80
46440;DHT22;32138;50.966;6.968;2022-08-06T09:05:42;20.50;55.10
46440;DHT22;32138;50.966;6.968;2022-08-06T09:07:44;20.60;55.10
46440;DHT22;32138;50.966;6.968;2022-08-06T09:09:45;20.60;54.30
46440;DHT22;32138;50.966;6.968;2022-08-06T09:11:46;20.60;54.80
46440;DHT22;32138;50.966;6.968;2022-08-06T09:13:47;20.50;54.20
46440;DHT22;32138;50.966;6.968;2022-08-06T09:15:48;20.60;54.00
46440;DHT22;32138;50.966;6.968;2022-08-06T09:17:49;20.50;54.00
46440;DHT22;32138;50.966;6.968;2022-08-06T09:19:50;20.60;54.20
46440;DHT22;32138;50.966;6.968;2022-08-06T09:21:51;20.60;54.80
46440;DHT22;32138;50.966;6.968;2022-08-06T09:23:52;20.60;53.70
46440;DHT22;32138;50.966;6.968;2022-08-06T09:25:53;20.60;54.90
46440;DHT22;32138;50.966;6.968;2022-08-06T09:27:54;20.70;53.90
46440;DHT22;32138;50.966;6.968;2022-08-06T09:29:57;20.70;54.10
46440;DHT22;32138;50.966;6.968;2022-08-06T09:32:00;20.70;53.70
46440;DHT22;32138;50.966;6.968;2022-08-06T09:34:04;20.70;53.40
46440;DHT22;32138;50.966;6.968;2022-08-06T09:36:10;20.70;53.60
46440;DHT22;32138;50.966;6.968;2022-08-06T09:38:14;20.70;53.70
46440;DHT22;32138;50.966;6.968;2022-08-06T09:40:17;20.70;52.20
46440;DHT22;32138;50.966;6.968;2022-08-06T09:42:36;20.60;51.70
46440;DHT22;32138;50.966;6.968;2022-08-06T09:44:38;20.80;52.10
46440;DHT22;32138;50.966;6.968;2022-08-06T09:46:41;20.90;51.90
46440;DHT22;32138;50.966;6.968;2022-08-06T09:49:00;20.90;51.00
46440;DHT22;32138;50.966;6.968;2022-08-06T09:51:02;20.90;51.00
46440;DHT22;32138;50.966;6.968;2022-08-06T09:53:03;20.90;53.10
46440;DHT22;32138;50.966;6.968;2022-08-06T09:55:05;21.00;51.70
46440;DHT22;32138;50.966;6.968;2022-08-06T09:57:06;20.90;51.90
46440;DHT22;32138;50.966;6.968;2022-08-06T09:59:08;20.80;52.90
46440;DHT22;32138;50.966;6.968;2022-08-06T10:01:14;20.80;49.60
46440;DHT22;32138;50.966;6.968;2022-08-06T10:03:16;20.90;50.00
46440;DHT22;32138;50.966;6.968;2022-08-06T10:05:18;20.90;48.40
46440;DHT22;32138;50.966;6.968;2022-08-06T10:07:28;21.00;48.60
46440;DHT22;32138;50.966;6.968;2022-08-06T10:09:30;21.10;48.00
46440;DHT22;32138;50.966;6.968;2022-08-06T10:11:35;21.10;48.40
46440;DHT22;32138;50.966;6.968;2022-08-06T10:13:38;21.10;48.40
46440;DHT22;32138;50.966;6.968;2022-08-06T10:15:38;21.20;49.50
46440;DHT22;32138;50.966;6.968;2022-08-06T10:17:45;21.20;49.50
46440;DHT22;32138;50.966;6.968;2022-08-06T10:20:07;21.30;47.90
46440;DHT22;32138;50.966;6.968;2022-08-06T10:22:17;21.40;47.20
46440;DHT22;32138;50.966;6.968;2022-08-06T10:24:19;21.40;47.20
46440;DHT22;32138;50.966;6.968;2022-08-06T10:26:31;21.50;47.40
46440;DHT22;32138;50.966;6.968;2022-08-06T10:28:34;21.60;46.10
46440;DHT22;32138;50.966;6.968;2022-08-06T10:30:36;21.60;46.30
46440;DHT22;32138;50.966;6.968;2022-08-06T10:34:53;21.60;47.40
46440;DHT22;32138;50.966;6.968;2022-08-06T10:37:01;21.60;47.40
46440;DHT22;32138;50.966;6.968;2022-08-06T10:39:04;21.60;47.80
46440;DHT22;32138;50.966;6.968;2022-08-06T10:41:08;21.60;47.00
46440;DHT22;32138;50.966;6.968;2022-08-06T10:43:10;21.50;46.90
46440;DHT22;32138;50.966;6.968;2022-08-06T10:45:12;21.40;45.70
46440;DHT22;32138;50.966;6.968;2022-08-06T10:47:14;21.50;45.90
46440;DHT22;32138;50.966;6.968;2022-08-06T10:49:16;21.40;45.50
46440;DHT22;32138;50.966;6.968;2022-08-06T10:51:17;21.30;45.90
46440;DHT22;32138;50.966;6.968;2022-08-06T10:53:18;21.30;45.80
46440;DHT22;32138;50.966;6.968;2022-08-06T10:55:19;21.30;44.90
46440;DHT22;32138;50.966;6.968;2022-08-06T10:57:22;21.40;45.80
46440;DHT22;32138;50.966;6.968;2022-08-06T10:59:23;21.40;46.50
46440;DHT22;32138;50.966;6.968;2022-08-06T11:01:41;21.50;47.10
46440;DHT22;32138;50.966;6.968;2022-08-06T11:04:16;21.50;47.00
46440;DHT22;32138;50.966;6.968;2022-08-06T11:09:05;21.40;45.60
46440;DHT22;32138;50.966;6.968;2022-08-06T11:11:43;21.40;46.60
46440;DHT22;32138;50.966;6.968;2022-08-06T11:14:09;21.50;46.90
46440;DHT22;32138;50.966;6.968;2022-08-06T11:16:25;21.60;46.60
46440;DHT22;32138;50.966;6.968;2022-08-06T11:18:27;21.60;46.10
46440;DHT22;32138;50.966;6.968;2022-08-06T11:22:39;21.70;45.00
46440;DHT22;32138;50.966;6.968;2022-08-06T11:24:50;21.70;44.70
46440;DHT22;32138;50.966;6.968;2022-08-06T11:26:52;21.80;45.90
46440;DHT22;32138;50.966;6.968;2022-08-06T11:30:55;21.90;45.00
46440;DHT22;32138;50.966;6.968;2022-08-06T11:32:57;22.00;44.70
46440;DHT22;32138;50.966;6.968;2022-08-06T11:34:57;22.00;44.70
46440;DHT22;32138;50.966;6.968;2022-08-06T11:36:59;21.90;44.10
46440;DHT22;32138;50.966;6.968;2022-08-06T11:39:01;21.90;43.70
46440;DHT22;32138;50.966;6.968;2022-08-06T11:41:08;21.80;45.30
46440;DHT22;32138;50.966;6.968;2022-08-06T11:43:10;21.80;46.20
46440;DHT22;32138;50.966;6.968;2022-08-06T11:45:11;21.70;45.00
46440;DHT22;32138;50.966;6.968;2022-08-06T11:47:16;21.70;45.40
46440;DHT22;32138;50.966;6.968;2022-08-06T11:49:37;21.70;44.10
46440;DHT22;32138;50.966;6.968;2022-08-06T11:51:58;21.70;44.80
46440;DHT22;32138;50.966;6.968;2022-08-06T11:56:19;21.70;44.20
46440;DHT22;32138;50.966;6.968;2022-08-06T11:58:19;21.70;43.40
46440;DHT22;32138;50.966;6.968;2022-08-06T12:00:22;21.80;43.20
46440;DHT22;32138;50.966;6.968;2022-08-06T12:02:45;21.80;43.30
46440;DHT22;32138;50.966;6.968;2022-08-06T12:04:47;21.80;41.90
46440;DHT22;32138;50.966;6.968;2022-08-06T12:06:48;21.90;43.10
46440;DHT22;32138;50.966;6.968;2022-08-06T12:09:08;22.10;43.80
46440;DHT22;32138;50.966;6.968;2022-08-06T12:11:27;22.20;46.50
46440;DHT22;32138;50.966;6.968;2022-08-06T12:13:38;22.20;45.20
46440;DHT22;32138;50.966;6.968;2022-08-06T12:15:39;22.20;43.30
46440;DHT22;32138;50.966;6.968;2022-08-06T12:19:58;22.10;45.30
46440;DHT22;32138;50.966;6.968;2022-08-06T12:22:03;22.00;43.80
46440;DHT22;32138;50.966;6.968;2022-08-06T12:24:07;22.10;45.00
46440;DHT22;32138;50.966;6.968;2022-08-06T12:26:08;22.20;44.00
46440;DHT22;32138;50.966;6.968;2022-08-06T12:28:10;22.20;44.50
46440;DHT22;32138;50.966;6.968;2022-08-06T12:30:13;22.20;43.90
46440;DHT22;32138;50.966;6.968;2022-08-06T12:32:26;22.20;45.00
46440;DHT22;32138;50.966;6.968;2022-08-06T12:34:31;22.20;42.60
46440;DHT22;32138;50.966;6.968;2022-08-06T12:36:33;22.00;42.60
46440;DHT22;32138;50.966;6.968;2022-08-06T12:38:35;22.00;43.70
46440;DHT22;32138;50.966;6.968;2022-08-06T12:40:36;22.10;43.80
46440;DHT22;32138;50.966;6.968;2022-08-06T12:42:38;22.10;43.40
46440;DHT22;32138;50.966;6.968;2022-08-06T12:44:39;22.20;43.90
46440;DHT22;32138;50.966;6.968;2022-08-06T12:46:39;22.30;43.60
46440;DHT22;32138;50.966;6.968;2022-08-06T12:48:46;22.30;44.00
46440;DHT22;32138;50.966;6.968;2022-08-06T12:50:48;22.40;46.40
46440;DHT22;32138;50.966;6.968;2022-08-06T12:53:06;22.40;45.20
46440;DHT22;32138;50.966;6.968;2022-08-06T12:55:17;22.40;44.10
46440;DHT22;32138;50.966;6.968;2022-08-06T12:57:25;22.30;45.20
46440;DHT22;32138;50.966;6.968;2022-08-06T12:59:27;22.30;43.80
46440;DHT22;32138;50.966;6.968;2022-08-06T13:01:29;22.30;44.60
46440;DHT22;32138;50.966;6.968;2022-08-06T13:03:32;22.50;44.30
46440;DHT22;32138;50.966;6.968;2022-08-06T13:05:34;22.80;42.60
46440;DHT22;32138;50.966;6.968;2022-08-06T13:07:35;22.80;43.10
46440;DHT22;32138;50.966;6.968;2022-08-06T13:09:36;22.80;42.50
46440;DHT22;32138;50.966;6.968;2022-08-06T13:11:37;22.90;43.00
46440;DHT22;32138;50.966;6.968;2022-08-06T13:13:41;22.90;43.80
46440;DHT22;32138;50.966;6.968;2022-08-06T13:16:00;23.00;43.40
46440;DHT22;32138;50.966;6.968;2022-08-06T13:18:12;23.20;41.70
46440;DHT22;32138;50.966;6.968;2022-08-06T13:20:14;23.20;42.10
46440;DHT22;32138;50.966;6.968;2022-08-06T13:22:14;23.20;42.80
46440;DHT22;32138;50.966;6.968;2022-08-06T13:24:26;23.30;41.60
46440;DHT22;32138;50.966;6.968;2022-08-06T13:26:29;23.30;43.60
46440;DHT22;32138;50.966;6.968;2022-08-06T13:28:30;23.40;42.30
46440;DHT22;32138;50.966;6.968;2022-08-06T13:30:31;23.30;42.70
46440;DHT22;32138;50.966;6.968;2022-08-06T13:32:32;23.30;43.00
46440;DHT22;32138;50.966;6.968;2022-08-06T13:34:50;23.30;44.10
46440;DHT22;32138;50.966;6.968;2022-08-06T13:36:56;23.30;38.30
46440;DHT22;32138;50.966;6.968;2022-08-06T13:39:23;23.40;38.80
46440;DHT22;32138;50.966;6.968;2022-08-06T13:41:30;23.50;39.60
46440;DHT22;32138;50.966;6.968;2022-08-06T13:43:42;23.60;40.60
46440;DHT22;32138;50.966;6.968;2022-08-06T13:45:44;23.70;38.60
46440;DHT22;32138;50.966;6.968;2022-08-06T13:47:45;23.80;41.60
46440;DHT22;32138;50.966;6.968;2022-08-06T13:49:50;23.90;42.70